SWT182 GCLP-GCXO
Flight info
| Callsign | SWT182 |
|---|---|
| Flight time | 0h 16m |
| Altitude | 10000 |
| Route | TFN |
| Aircraft | B752/M-SDE2E3FGHIJ3J4J7RWXY/LB1 |
Departure
| Time | 2026-04-21 20:28 |
|---|---|
| Airport | Gran Canaria Airport (GCLP) |
Arrival
| Time | 2026-04-21 20:44 |
|---|---|
| Airport | Tenerife Norte-Ciudad de La Laguna Airport (GCXO) |
| Time | Latitude | Longitude | Altitude | Speed | Heading |
|---|---|---|---|---|---|
| 2026-04-21 19:53 | 27.93538 | -15.38780 | 109 ft | 0 kts | 291° |
| 2026-04-21 20:23 | 27.93544 | -15.38799 | 109 ft | 5 kts | 292° |
| 2026-04-21 20:23 | 27.93556 | -15.38841 | 112 ft | 3 kts | 267° |
| 2026-04-21 20:23 | 27.93524 | -15.38865 | 112 ft | 9 kts | 197° |
| 2026-04-21 20:23 | 27.93451 | -15.38855 | 109 ft | 14 kts | 122° |
| 2026-04-21 20:24 | 27.93406 | -15.38767 | 101 ft | 14 kts | 164° |
| 2026-04-21 20:24 | 27.93286 | -15.38808 | 99 ft | 21 kts | 202° |
| 2026-04-21 20:24 | 27.93141 | -15.38876 | 99 ft | 22 kts | 208° |
| 2026-04-21 20:24 | 27.93001 | -15.38942 | 99 ft | 21 kts | 202° |
| 2026-04-21 20:25 | 27.92858 | -15.39005 | 101 ft | 25 kts | 201° |
| 2026-04-21 20:25 | 27.92679 | -15.39084 | 106 ft | 26 kts | 202° |
| 2026-04-21 20:25 | 27.92516 | -15.39157 | 112 ft | 23 kts | 201° |
| 2026-04-21 20:25 | 27.92374 | -15.39219 | 117 ft | 20 kts | 201° |
| 2026-04-21 20:26 | 27.92246 | -15.39275 | 118 ft | 20 kts | 202° |
| 2026-04-21 20:26 | 27.92109 | -15.39308 | 120 ft | 20 kts | 176° |
| 2026-04-21 20:26 | 27.91972 | -15.39295 | 116 ft | 18 kts | 169° |
| 2026-04-21 20:26 | 27.91916 | -15.39235 | 112 ft | 4 kts | 98° |
| 2026-04-21 20:27 | 27.91947 | -15.39207 | 111 ft | 8 kts | 22° |
| 2026-04-21 20:27 | 27.92014 | -15.39177 | 110 ft | 11 kts | 22° |
| 2026-04-21 20:27 | 27.92180 | -15.39104 | 105 ft | 54 kts | 21° |
| 2026-04-21 20:27 | 27.92769 | -15.38843 | 87 ft | 123 kts | 21° |
| 2026-04-21 20:28 | 27.93742 | -15.38410 | 222 ft | 168 kts | 18° |
| 2026-04-21 20:28 | 27.94858 | -15.37907 | 916 ft | 175 kts | 21° |
| 2026-04-21 20:28 | 27.95958 | -15.37416 | 1913 ft | 171 kts | 19° |
| 2026-04-21 20:28 | 27.97056 | -15.36940 | 2579 ft | 180 kts | 19° |
| 2026-04-21 20:29 | 27.98323 | -15.36408 | 2949 ft | 209 kts | 20° |
| 2026-04-21 20:29 | 27.99792 | -15.35781 | 3008 ft | 240 kts | 20° |
| 2026-04-21 20:29 | 28.01449 | -15.35122 | 3179 ft | 262 kts | 10° |
| 2026-04-21 20:29 | 28.03191 | -15.35235 | 4273 ft | 258 kts | 341° |
| 2026-04-21 20:30 | 28.04710 | -15.36323 | 5113 ft | 266 kts | 311° |
| 2026-04-21 20:30 | 28.05673 | -15.38130 | 6034 ft | 271 kts | 295° |
| 2026-04-21 20:30 | 28.06477 | -15.40032 | 6958 ft | 274 kts | 296° |
| 2026-04-21 20:30 | 28.07297 | -15.41951 | 7852 ft | 277 kts | 295° |
| 2026-04-21 20:31 | 28.08240 | -15.43856 | 8728 ft | 281 kts | 301° |
| 2026-04-21 20:31 | 28.09287 | -15.45731 | 9553 ft | 285 kts | 300° |
| 2026-04-21 20:31 | 28.10349 | -15.47661 | 10000 ft | 297 kts | 300° |
| 2026-04-21 20:31 | 28.11439 | -15.49636 | 9986 ft | 291 kts | 300° |
| 2026-04-21 20:32 | 28.12498 | -15.51558 | 9973 ft | 284 kts | 300° |
| 2026-04-21 20:32 | 28.13542 | -15.53469 | 9968 ft | 285 kts | 300° |
| 2026-04-21 20:32 | 28.14577 | -15.55389 | 9974 ft | 287 kts | 300° |
| 2026-04-21 20:32 | 28.15619 | -15.57321 | 9951 ft | 288 kts | 300° |
| 2026-04-21 20:33 | 28.16675 | -15.59277 | 9788 ft | 294 kts | 300° |
| 2026-04-21 20:33 | 28.17740 | -15.61255 | 9671 ft | 297 kts | 300° |
| 2026-04-21 20:33 | 28.18823 | -15.63264 | 9547 ft | 300 kts | 300° |
| 2026-04-21 20:33 | 28.19914 | -15.65289 | 9423 ft | 302 kts | 300° |
| 2026-04-21 20:34 | 28.21016 | -15.67335 | 9305 ft | 305 kts | 300° |
| 2026-04-21 20:34 | 28.22125 | -15.69395 | 9185 ft | 307 kts | 300° |
| 2026-04-21 20:34 | 28.23238 | -15.71464 | 9060 ft | 303 kts | 300° |
| 2026-04-21 20:34 | 28.24301 | -15.73438 | 8916 ft | 285 kts | 300° |
| 2026-04-21 20:35 | 28.25319 | -15.75331 | 8724 ft | 276 kts | 300° |
| 2026-04-21 20:35 | 28.26317 | -15.77192 | 8535 ft | 278 kts | 300° |
| 2026-04-21 20:35 | 28.27329 | -15.79077 | 8343 ft | 280 kts | 300° |
| 2026-04-21 20:35 | 28.28339 | -15.80961 | 8151 ft | 279 kts | 300° |
| 2026-04-21 20:36 | 28.29332 | -15.82811 | 7958 ft | 277 kts | 300° |
| 2026-04-21 20:36 | 28.30336 | -15.84683 | 7760 ft | 274 kts | 300° |
| 2026-04-21 20:36 | 28.31317 | -15.86513 | 7565 ft | 274 kts | 300° |
| 2026-04-21 20:36 | 28.32292 | -15.88378 | 7369 ft | 274 kts | 296° |
| 2026-04-21 20:37 | 28.33115 | -15.90324 | 7177 ft | 274 kts | 295° |
| 2026-04-21 20:37 | 28.33930 | -15.92294 | 6989 ft | 273 kts | 295° |
| 2026-04-21 20:37 | 28.34732 | -15.94232 | 6958 ft | 270 kts | 295° |
| 2026-04-21 20:37 | 28.35525 | -15.96164 | 6963 ft | 273 kts | 293° |
| 2026-04-21 20:38 | 28.36215 | -15.98170 | 6966 ft | 275 kts | 290° |
| 2026-04-21 20:38 | 28.36885 | -16.00215 | 6899 ft | 275 kts | 290° |
| 2026-04-21 20:38 | 28.37560 | -16.02221 | 6777 ft | 272 kts | 291° |
| 2026-04-21 20:38 | 28.38242 | -16.04243 | 6648 ft | 271 kts | 291° |
| 2026-04-21 20:39 | 28.38904 | -16.06207 | 6474 ft | 266 kts | 291° |
| 2026-04-21 20:39 | 28.39553 | -16.08138 | 6269 ft | 259 kts | 291° |
| 2026-04-21 20:39 | 28.40189 | -16.10028 | 6063 ft | 252 kts | 291° |
| 2026-04-21 20:39 | 28.40815 | -16.11891 | 5771 ft | 250 kts | 291° |
| 2026-04-21 20:40 | 28.41430 | -16.13723 | 5462 ft | 249 kts | 291° |
| 2026-04-21 20:40 | 28.42043 | -16.15552 | 5151 ft | 247 kts | 291° |
| 2026-04-21 20:40 | 28.42642 | -16.17339 | 4806 ft | 237 kts | 291° |
| 2026-04-21 20:40 | 28.43211 | -16.19038 | 4495 ft | 227 kts | 292° |
| 2026-04-21 20:41 | 28.43759 | -16.20678 | 4200 ft | 217 kts | 291° |
| 2026-04-21 20:41 | 28.44280 | -16.22234 | 3951 ft | 206 kts | 292° |
| 2026-04-21 20:41 | 28.44786 | -16.23738 | 3673 ft | 198 kts | 292° |
| 2026-04-21 20:41 | 28.45254 | -16.25138 | 3453 ft | 183 kts | 291° |
| 2026-04-21 20:42 | 28.45687 | -16.26438 | 3201 ft | 167 kts | 291° |
| 2026-04-21 20:42 | 28.46076 | -16.27601 | 2988 ft | 149 kts | 292° |
| 2026-04-21 20:42 | 28.46427 | -16.28653 | 2751 ft | 132 kts | 292° |
| 2026-04-21 20:42 | 28.46765 | -16.29647 | 2569 ft | 138 kts | 294° |
| 2026-04-21 20:43 | 28.47117 | -16.30676 | 2396 ft | 138 kts | 291° |
| 2026-04-21 20:43 | 28.47446 | -16.31683 | 2220 ft | 137 kts | 291° |
| 2026-04-21 20:43 | 28.47782 | -16.32700 | 2031 ft | 135 kts | 294° |
| 2026-04-21 20:43 | 28.48089 | -16.33619 | 2033 ft | 102 kts | 291° |
| 2026-04-21 20:44 | 28.48272 | -16.34168 | 2042 ft | 64 kts | 290° |
| 2026-04-21 20:44 | 28.48422 | -16.34622 | 2069 ft | 55 kts | 290° |
| 2026-04-21 20:44 | 28.48547 | -16.34998 | 2082 ft | 47 kts | 290° |
| 2026-04-21 20:44 | 28.48650 | -16.35232 | 2078 ft | 26 kts | 305° |
| 2026-04-21 20:45 | 28.48732 | -16.35322 | 2074 ft | 11 kts | 4° |
| 2026-04-21 20:45 | 28.48744 | -16.35246 | 2074 ft | 16 kts | 111° |
| 2026-04-21 20:45 | 28.48685 | -16.35067 | 2077 ft | 30 kts | 110° |
| 2026-04-21 20:45 | 28.48608 | -16.34833 | 2073 ft | 32 kts | 110° |
| 2026-04-21 20:46 | 28.48530 | -16.34598 | 2062 ft | 25 kts | 110° |
| 2026-04-21 20:46 | 28.48485 | -16.34463 | 2055 ft | 8 kts | 108° |
| 2026-04-21 20:46 | 28.48516 | -16.34426 | 2051 ft | 8 kts | 14° |
| 2026-04-21 20:46 | 28.48567 | -16.34404 | 2047 ft | 6 kts | 21° |
| 2026-04-21 20:47 | 28.48574 | -16.34401 | 2047 ft | 0 kts | 21° |